createdAt,value
2018-09-14T00:01:44.747Z,22.07
2018-09-14T00:04:12.460Z,22.03
2018-09-14T00:06:40.163Z,23.90
2018-09-14T00:09:10.050Z,24.67
2018-09-14T00:11:37.819Z,23.70
2018-09-14T00:14:05.579Z,26.17
2018-09-14T00:16:33.233Z,24.25
2018-09-14T00:19:00.948Z,26.73
2018-09-14T00:21:28.629Z,25.37
2018-09-14T00:23:56.294Z,24.63
2018-09-14T00:26:23.911Z,25.67
2018-09-14T00:28:51.569Z,26.25
2018-09-14T00:31:19.218Z,26.50
2018-09-14T00:33:46.898Z,25.70
2018-09-14T00:36:14.553Z,23.80
2018-09-14T00:38:42.190Z,25.60
2018-09-14T00:41:09.881Z,25.35
2018-09-14T00:43:37.554Z,24.40
2018-09-14T00:46:05.245Z,23.47
2018-09-14T00:48:32.864Z,23.90
2018-09-14T00:51:00.546Z,22.37
2018-09-14T00:53:28.210Z,22.93
2018-09-14T00:55:55.905Z,25.20
2018-09-14T00:58:23.515Z,26.40
2018-09-14T01:00:51.209Z,22.07
2018-09-14T01:03:19.337Z,23.60
2018-09-14T01:05:47.109Z,22.58
2018-09-14T01:08:14.768Z,22.48
2018-09-14T01:10:42.625Z,22.90
2018-09-14T01:13:10.316Z,23.20
2018-09-14T01:15:37.997Z,25.70
2018-09-14T01:18:05.761Z,22.73
2018-09-14T01:20:33.510Z,22.35
2018-09-14T01:23:01.135Z,24.80
2018-09-14T01:25:28.723Z,23.12
2018-09-14T01:27:56.382Z,25.32
2018-09-14T01:30:24.105Z,21.57
2018-09-14T01:32:51.922Z,24.40
2018-09-14T01:35:25.455Z,23.83
2018-09-14T01:37:53.037Z,26.23
2018-09-14T01:40:20.700Z,24.47
2018-09-14T01:42:48.641Z,25.40
2018-09-14T01:45:16.277Z,24.80
2018-09-14T01:47:43.913Z,25.27
2018-09-14T01:50:11.523Z,25.37
2018-09-14T01:52:39.161Z,25.00
2018-09-14T01:55:06.884Z,27.17
2018-09-14T01:57:34.550Z,25.80
2018-09-14T02:00:02.228Z,25.90
2018-09-14T02:02:29.849Z,27.37
2018-09-14T02:04:57.549Z,28.00
2018-09-14T02:07:25.251Z,26.97
2018-09-14T02:09:52.954Z,27.80
2018-09-14T02:12:20.594Z,26.07
2018-09-14T02:14:48.208Z,25.80
2018-09-14T02:17:15.848Z,26.93
2018-09-14T02:19:43.544Z,27.47
2018-09-14T02:22:11.554Z,27.90
2018-09-14T02:24:39.168Z,28.37
2018-09-14T02:27:07.106Z,28.27
2018-09-14T02:29:34.741Z,27.82
2018-09-14T02:32:02.751Z,30.30
2018-09-14T02:34:30.408Z,26.68
2018-09-14T02:36:58.084Z,28.70
2018-09-14T02:39:25.817Z,26.10
2018-09-14T02:41:53.723Z,25.50
2018-09-14T02:44:21.384Z,27.70
2018-09-14T02:46:49.036Z,26.30
2018-09-14T02:49:16.664Z,27.15
2018-09-14T02:51:44.607Z,27.60
2018-09-14T02:54:12.317Z,25.73
2018-09-14T02:56:39.996Z,26.70
2018-09-14T02:59:07.693Z,26.65
2018-09-14T03:01:35.390Z,25.72
2018-09-14T03:04:03.156Z,27.10
2018-09-14T03:06:30.897Z,28.00
2018-09-14T03:08:58.521Z,28.73
2018-09-14T03:11:26.171Z,26.90
2018-09-14T03:13:53.823Z,26.65
2018-09-14T03:16:21.501Z,27.30
2018-09-14T03:18:49.174Z,25.47
2018-09-14T03:21:16.904Z,25.27
2018-09-14T03:23:44.813Z,26.43
2018-09-14T03:26:12.905Z,26.60
2018-09-14T03:28:40.773Z,26.17
2018-09-14T03:31:08.399Z,28.73
2018-09-14T03:33:36.130Z,26.97
2018-09-14T03:36:03.844Z,28.25
2018-09-14T03:38:31.561Z,26.20
2018-09-14T03:40:59.182Z,29.53
2018-09-14T03:43:26.946Z,30.50
2018-09-14T03:45:54.644Z,29.32
2018-09-14T03:48:22.306Z,29.77
2018-09-14T03:50:50.418Z,31.43
2018-09-14T03:53:18.078Z,30.47
2018-09-14T03:55:45.717Z,31.00
2018-09-14T03:58:13.442Z,31.77
2018-09-14T04:00:41.072Z,29.82
2018-09-14T04:03:08.864Z,32.42
2018-09-14T04:05:36.522Z,33.33
2018-09-14T04:08:04.212Z,34.87
2018-09-14T04:10:31.998Z,32.17
2018-09-14T04:12:59.704Z,32.83
2018-09-14T04:15:27.388Z,34.08
2018-09-14T04:17:55.145Z,31.67
2018-09-14T04:20:22.885Z,30.83
2018-09-14T04:22:50.540Z,32.45
2018-09-14T04:25:18.228Z,33.25
2018-09-14T04:27:45.810Z,32.83
2018-09-14T04:30:13.660Z,31.20
2018-09-14T04:32:41.520Z,30.77
2018-09-14T04:35:09.232Z,33.83
2018-09-14T04:37:36.934Z,29.90
2018-09-14T04:40:04.794Z,31.12
2018-09-14T04:42:32.568Z,28.55
2018-09-14T04:45:00.379Z,31.50
2018-09-14T04:47:28.015Z,29.77
2018-09-14T04:49:55.775Z,30.27
2018-09-14T04:52:23.371Z,28.57
2018-09-14T04:54:51.259Z,29.90
2018-09-14T04:57:19.148Z,28.70
2018-09-14T04:59:46.833Z,29.67
2018-09-14T05:02:14.545Z,26.67
2018-09-14T05:04:42.371Z,29.70
2018-09-14T05:07:10.108Z,29.92
2018-09-14T05:09:37.781Z,29.70
2018-09-14T05:12:05.787Z,29.67
2018-09-14T05:14:33.443Z,28.40
2018-09-14T05:17:01.149Z,28.27
2018-09-14T05:19:28.897Z,26.70
2018-09-14T05:21:56.632Z,30.73
2018-09-14T05:24:24.347Z,30.92
2018-09-14T05:26:52.030Z,27.73
2018-09-14T05:29:19.813Z,26.97
2018-09-14T05:31:47.506Z,28.80
2018-09-14T05:34:15.173Z,26.50
2018-09-14T05:36:42.820Z,27.47
2018-09-14T05:39:10.478Z,27.25
2018-09-14T05:41:38.390Z,26.17
2018-09-14T05:44:06.210Z,23.67
2018-09-14T05:46:33.783Z,24.30
2018-09-14T05:49:01.500Z,22.32
2018-09-14T05:51:29.184Z,24.10
2018-09-14T05:53:56.930Z,21.30
2018-09-14T05:56:25.016Z,22.97
2018-09-14T05:58:52.726Z,21.90
2018-09-14T06:01:20.406Z,21.63
2018-09-14T06:03:48.070Z,20.23
2018-09-14T06:06:15.760Z,22.45
2018-09-14T06:08:43.440Z,23.50
2018-09-14T06:11:11.233Z,23.23
2018-09-14T06:13:38.976Z,23.40
2018-09-14T06:16:06.738Z,24.00
2018-09-14T06:18:34.394Z,22.20
2018-09-14T06:21:02.220Z,22.80
2018-09-14T06:23:30.028Z,22.43
2018-09-14T06:25:57.659Z,22.35
2018-09-14T06:28:25.297Z,19.33
2018-09-14T06:30:52.991Z,20.35
2018-09-14T06:33:20.696Z,18.92
2018-09-14T06:35:48.507Z,19.00
2018-09-14T06:38:16.178Z,18.63
2018-09-14T06:40:43.969Z,18.80
2018-09-14T06:43:12.553Z,18.03
2018-09-14T06:45:40.438Z,17.55
2018-09-14T06:48:08.082Z,17.00
2018-09-14T06:50:35.749Z,17.98
2018-09-14T06:53:03.536Z,18.60
2018-09-14T06:55:31.198Z,20.23
2018-09-14T06:57:58.915Z,18.53
2018-09-14T07:00:26.965Z,20.37
2018-09-14T07:02:54.545Z,19.83
2018-09-14T07:05:22.841Z,19.98
2018-09-14T07:07:50.672Z,19.50
2018-09-14T07:10:18.397Z,19.60
2018-09-14T07:12:46.035Z,17.30
2018-09-14T07:15:13.702Z,18.05
2018-09-14T07:17:41.428Z,18.55
2018-09-14T07:20:09.287Z,19.37
2018-09-14T07:22:36.990Z,16.40
2018-09-14T07:25:04.787Z,18.60
2018-09-14T07:27:33.089Z,17.60
2018-09-14T07:30:00.761Z,17.85
2018-09-14T07:32:28.458Z,19.17
2018-09-14T07:34:56.363Z,18.60
2018-09-14T07:37:24.002Z,18.20
2018-09-14T07:39:51.690Z,18.93
2018-09-14T07:42:19.476Z,19.02
2018-09-14T07:44:47.180Z,17.30
2018-09-14T07:47:14.854Z,20.20
2018-09-14T07:49:42.702Z,20.30
2018-09-14T07:52:10.312Z,19.12
2018-09-14T07:54:38.044Z,18.50
2018-09-14T07:57:05.767Z,19.50
2018-09-14T07:59:33.509Z,20.73
2018-09-14T08:02:01.243Z,22.93
2018-09-14T08:04:28.901Z,20.32
2018-09-14T08:06:56.585Z,24.10
2018-09-14T08:09:24.364Z,21.23
2018-09-14T08:11:52.050Z,23.33
2018-09-14T08:14:19.837Z,23.33
2018-09-14T08:16:47.520Z,22.17
2018-09-14T08:19:15.213Z,23.60
2018-09-14T08:21:43.062Z,22.40
2018-09-14T08:24:10.629Z,25.70
2018-09-14T08:26:38.309Z,25.80
2018-09-14T08:29:06.119Z,25.32
2018-09-14T08:31:33.790Z,23.97
2018-09-14T08:34:01.535Z,24.97
2018-09-14T08:36:29.209Z,23.70
2018-09-14T08:38:56.893Z,20.47
2018-09-14T08:41:24.650Z,25.12
2018-09-14T08:43:52.475Z,23.38
2018-09-14T08:46:20.191Z,25.40
2018-09-14T08:48:47.873Z,21.80
2018-09-14T08:51:15.543Z,22.70
2018-09-14T08:53:43.343Z,22.20
2018-09-14T08:56:11.098Z,22.63
2018-09-14T08:58:38.780Z,22.55
2018-09-14T09:01:06.645Z,22.67
2018-09-14T09:03:34.329Z,22.40
2018-09-14T09:06:02.169Z,20.77
2018-09-14T09:08:29.998Z,21.62
2018-09-14T09:10:57.710Z,19.55
2018-09-14T09:13:25.472Z,18.95
2018-09-14T09:15:53.088Z,21.37
2018-09-14T09:18:20.779Z,19.00
2018-09-14T09:20:48.381Z,22.33
2018-09-14T09:23:16.077Z,22.00
2018-09-14T09:25:43.725Z,18.98
2018-09-14T09:28:11.375Z,21.63
2018-09-14T09:30:38.998Z,18.80
2018-09-14T09:33:06.675Z,18.20
2018-09-14T09:35:34.856Z,18.75
2018-09-14T09:38:02.571Z,18.70
2018-09-14T09:40:30.186Z,17.57
2018-09-14T09:42:57.949Z,15.08
2018-09-14T09:45:25.613Z,16.77
2018-09-14T09:47:53.297Z,16.40
2018-09-14T09:50:21.043Z,16.27
2018-09-14T09:52:48.666Z,17.17
2018-09-14T09:55:16.417Z,16.15
2018-09-14T09:57:44.192Z,15.78
2018-09-14T10:00:17.581Z,16.90
2018-09-14T10:03:01.671Z,16.73
2018-09-14T10:05:34.996Z,15.03
2018-09-14T10:08:02.728Z,15.47
2018-09-14T10:10:30.531Z,14.43
2018-09-14T10:12:58.262Z,13.22
2018-09-14T10:15:25.953Z,13.58
2018-09-14T10:17:53.649Z,13.40
2018-09-14T10:20:21.370Z,12.10
2018-09-14T10:22:49.031Z,13.70
2018-09-14T10:25:18.484Z,13.50
2018-09-14T10:27:46.220Z,15.13
2018-09-14T10:30:14.008Z,12.17
2018-09-14T10:32:41.681Z,12.58
2018-09-14T10:35:09.565Z,12.60
2018-09-14T10:37:37.300Z,14.23
2018-09-14T10:40:05.087Z,12.23
2018-09-14T10:42:32.873Z,13.47
2018-09-14T10:45:00.619Z,12.60
2018-09-14T10:47:28.393Z,12.40
2018-09-14T10:49:56.687Z,11.70
2018-09-14T10:52:25.438Z,11.13
2018-09-14T10:54:53.316Z,10.67
2018-09-14T10:57:20.981Z,10.50
2018-09-14T10:59:48.951Z,10.18
2018-09-14T11:02:16.694Z,9.63
2018-09-14T11:04:45.776Z,11.05
2018-09-14T11:07:13.551Z,10.63
2018-09-14T11:09:41.348Z,10.43
2018-09-14T11:12:09.337Z,11.80
2018-09-14T11:14:37.235Z,12.00
2018-09-14T11:17:04.961Z,10.27
2018-09-14T11:19:33.655Z,10.38
2018-09-14T11:22:01.368Z,10.43
2018-09-14T11:24:29.184Z,10.55
2018-09-14T11:26:56.880Z,9.73
2018-09-14T11:29:25.997Z,9.43
2018-09-14T11:31:54.003Z,9.00
2018-09-14T11:34:21.717Z,9.03
2018-09-14T11:36:49.365Z,9.30
2018-09-14T11:39:17.012Z,10.05
2018-09-14T11:41:44.637Z,9.70
2018-09-14T11:44:12.299Z,9.27
2018-09-14T11:46:39.985Z,10.90
2018-09-14T11:49:07.611Z,11.43
2018-09-14T11:51:36.315Z,11.15
2018-09-14T11:54:05.734Z,12.07
2018-09-14T11:56:33.742Z,11.37
2018-09-14T11:59:01.544Z,11.00
2018-09-14T12:01:29.371Z,11.70
2018-09-14T12:03:57.021Z,11.87
2018-09-14T12:06:24.754Z,9.48
2018-09-14T12:08:52.516Z,9.45
2018-09-14T12:11:20.215Z,10.30
2018-09-14T12:13:47.867Z,10.60
2018-09-14T12:16:15.765Z,11.00
2018-09-14T12:18:43.501Z,10.93
2018-09-14T12:21:11.269Z,10.33
2018-09-14T12:23:38.919Z,11.10
2018-09-14T12:26:06.781Z,9.63
2018-09-14T12:28:34.827Z,9.40
2018-09-14T12:31:02.553Z,9.65
2018-09-14T12:33:30.739Z,10.85
2018-09-14T12:35:58.499Z,10.80
2018-09-14T12:38:26.223Z,9.83
2018-09-14T12:40:53.957Z,9.55
2018-09-14T12:43:21.624Z,10.50
2018-09-14T12:45:49.429Z,10.00
2018-09-14T12:48:17.255Z,8.77
2018-09-14T12:50:45.125Z,10.73
2018-09-14T12:53:12.867Z,10.17
2018-09-14T12:55:40.614Z,9.40
2018-09-14T12:58:08.448Z,9.23
2018-09-14T13:00:36.416Z,8.07
2018-09-14T13:03:05.142Z,8.53
2018-09-14T13:05:32.804Z,8.05
2018-09-14T13:08:00.474Z,9.03
2018-09-14T13:10:28.205Z,7.47
2018-09-14T13:12:55.962Z,9.23
2018-09-14T13:15:24.230Z,9.30
2018-09-14T13:17:51.966Z,8.05
2018-09-14T13:20:19.646Z,9.27
2018-09-14T13:22:47.466Z,8.10
2018-09-14T13:25:15.229Z,8.70
2018-09-14T13:27:42.998Z,8.97
2018-09-14T13:30:10.774Z,8.37
2018-09-14T13:32:40.424Z,6.05
2018-09-14T13:35:08.193Z,6.90
2018-09-14T13:37:35.904Z,6.90
2018-09-14T13:40:04.270Z,5.67
2018-09-14T13:42:32.085Z,6.00
2018-09-14T13:44:59.830Z,6.73
2018-09-14T13:47:27.485Z,6.83
2018-09-14T13:49:55.257Z,6.22
2018-09-14T13:52:23.079Z,6.10
2018-09-14T13:54:50.844Z,5.90
2018-09-14T13:57:18.642Z,6.27
2018-09-14T13:59:46.383Z,6.30
2018-09-14T14:02:14.068Z,6.80
2018-09-14T14:04:41.777Z,5.13
2018-09-14T14:07:09.521Z,4.20
2018-09-14T14:09:37.228Z,5.33
2018-09-14T14:12:05.024Z,6.10
2018-09-14T14:14:32.731Z,5.30
2018-09-14T14:17:00.540Z,5.20
2018-09-14T14:19:28.193Z,4.27
2018-09-14T14:21:58.551Z,5.67
2018-09-14T14:24:26.629Z,4.50
2018-09-14T14:26:54.426Z,4.40
2018-09-14T14:29:22.114Z,4.20
2018-09-14T14:31:49.852Z,4.30
2018-09-14T14:34:17.595Z,4.20
2018-09-14T14:36:45.221Z,3.77
2018-09-14T14:39:12.955Z,3.03
2018-09-14T14:41:40.825Z,3.47
2018-09-14T14:44:08.801Z,3.00
2018-09-14T14:46:36.438Z,3.00
2018-09-14T14:49:04.145Z,3.57
2018-09-14T14:51:31.887Z,6.13
2018-09-14T14:53:59.604Z,5.83
2018-09-14T14:56:27.287Z,7.17
2018-09-14T14:58:55.080Z,6.17
2018-09-14T15:01:22.830Z,8.70
2018-09-14T15:03:50.510Z,7.17
2018-09-14T15:06:19.170Z,8.17
2018-09-14T15:08:46.810Z,6.87
2018-09-14T15:11:14.399Z,7.45
2018-09-14T15:13:42.128Z,7.03
2018-09-14T15:16:09.950Z,5.73
2018-09-14T15:18:37.680Z,6.80
2018-09-14T15:21:05.403Z,6.67
2018-09-14T15:23:33.164Z,7.83
2018-09-14T15:26:00.954Z,6.67
2018-09-14T15:28:28.945Z,7.70
2018-09-14T15:30:56.697Z,7.50
2018-09-14T15:33:24.618Z,8.13
2018-09-14T15:35:52.422Z,7.37
2018-09-14T15:38:20.366Z,6.83
2018-09-14T15:40:48.063Z,6.70
2018-09-14T15:43:15.838Z,6.35
2018-09-14T15:45:43.672Z,7.10
2018-09-14T15:48:11.329Z,7.20
2018-09-14T15:50:39.420Z,6.40
2018-09-14T15:53:07.185Z,6.27
2018-09-14T15:55:35.022Z,8.73
2018-09-14T15:58:02.900Z,7.93
2018-09-14T16:00:30.727Z,7.93
2018-09-14T16:02:58.448Z,7.78
2018-09-14T16:05:26.307Z,8.50
2018-09-14T16:07:54.030Z,8.53
2018-09-14T16:10:21.747Z,9.60
2018-09-14T16:12:49.465Z,9.50
2018-09-14T16:15:17.287Z,8.43
2018-09-14T16:17:45.284Z,9.27
2018-09-14T16:20:12.983Z,8.43
2018-09-14T16:22:40.689Z,9.17
2018-09-14T16:25:08.437Z,10.30
2018-09-14T16:27:36.514Z,8.35
2018-09-14T16:30:05.224Z,12.67
2018-09-14T16:32:33.032Z,9.88
2018-09-14T16:35:00.657Z,8.78
2018-09-14T16:37:28.387Z,8.70
2018-09-14T16:39:56.080Z,9.07
2018-09-14T16:42:23.765Z,8.87
2018-09-14T16:44:51.479Z,8.63
2018-09-14T16:47:19.240Z,5.50
2018-09-14T16:49:46.869Z,8.35
2018-09-14T16:52:14.562Z,10.00
2018-09-14T16:54:42.268Z,10.47
2018-09-14T16:57:09.962Z,10.73
2018-09-14T16:59:37.604Z,11.07
2018-09-14T17:02:05.415Z,10.45
2018-09-14T17:04:33.021Z,10.07
2018-09-14T17:07:00.700Z,11.45
2018-09-14T17:09:28.501Z,10.63
2018-09-14T17:11:56.347Z,10.67
2018-09-14T17:14:24.110Z,10.33
2018-09-14T17:16:51.848Z,11.83
2018-09-14T17:19:19.596Z,11.20
2018-09-14T17:21:47.316Z,11.10
2018-09-14T17:24:15.037Z,12.80
2018-09-14T17:26:42.786Z,12.20
2018-09-14T17:29:10.537Z,11.55
2018-09-14T17:31:38.294Z,12.70
2018-09-14T17:34:05.978Z,12.67
2018-09-14T17:36:33.639Z,14.33
2018-09-14T17:39:01.359Z,13.07
2018-09-14T17:41:29.124Z,12.67
2018-09-14T17:43:56.784Z,12.63
2018-09-14T17:46:24.422Z,12.03
2018-09-14T17:48:52.106Z,11.95
2018-09-14T17:51:19.833Z,13.00
2018-09-14T17:53:47.436Z,12.03
2018-09-14T17:56:15.111Z,12.60
2018-09-14T17:58:42.791Z,12.20
2018-09-14T18:01:10.456Z,13.28
2018-09-14T18:03:38.123Z,12.23
2018-09-14T18:06:05.975Z,13.80
2018-09-14T18:08:33.813Z,13.33
2018-09-14T18:11:01.669Z,14.80
2018-09-14T18:13:29.374Z,12.87
2018-09-14T18:15:57.128Z,14.87
2018-09-14T18:18:24.780Z,16.07
2018-09-14T18:20:52.632Z,15.45
2018-09-14T18:23:20.290Z,14.40
2018-09-14T18:25:48.042Z,14.45
2018-09-14T18:28:15.713Z,15.75
2018-09-14T18:30:43.506Z,17.80
2018-09-14T18:33:11.237Z,16.83
2018-09-14T18:35:38.959Z,17.53
2018-09-14T18:38:06.779Z,21.47
2018-09-14T18:40:34.495Z,23.87
2018-09-14T18:43:02.186Z,20.23
2018-09-14T18:45:29.858Z,21.97
2018-09-14T18:47:57.468Z,18.15
2018-09-14T18:50:25.280Z,22.40
2018-09-14T18:52:52.965Z,20.37
2018-09-14T18:55:20.712Z,21.23
2018-09-14T18:57:48.526Z,22.97
2018-09-14T19:00:16.321Z,21.90
2018-09-14T19:02:44.249Z,21.97
2018-09-14T19:05:12.124Z,31.43
2018-09-14T19:07:40.124Z,24.90
2018-09-14T19:10:07.885Z,20.20
2018-09-14T19:12:35.778Z,22.27
2018-09-14T19:15:03.740Z,23.80
2018-09-14T19:17:31.433Z,20.20
2018-09-14T19:19:59.462Z,24.55
2018-09-14T19:22:28.277Z,23.37
2018-09-14T19:24:56.324Z,22.10
2018-09-14T19:27:24.133Z,21.33
2018-09-14T19:29:51.882Z,19.93
2018-09-14T19:32:19.526Z,18.42
2018-09-14T19:34:47.235Z,22.25
2018-09-14T19:37:14.987Z,24.60
2018-09-14T19:39:44.835Z,25.50
2018-09-14T19:42:12.523Z,17.87
2018-09-14T19:44:40.258Z,18.80
2018-09-14T19:47:07.998Z,35.73
2018-09-14T19:49:35.718Z,21.75
2018-09-14T19:52:03.467Z,21.10
2018-09-14T19:54:31.233Z,21.63
2018-09-14T19:56:58.907Z,16.17
2018-09-14T19:59:26.633Z,20.43
2018-09-14T20:01:54.461Z,18.00
2018-09-14T20:04:22.233Z,16.50
2018-09-14T20:06:55.290Z,16.77
2018-09-14T20:09:22.977Z,20.53
2018-09-14T20:11:51.169Z,18.00
2018-09-14T20:14:18.935Z,20.23
2018-09-14T20:16:46.737Z,24.23
2018-09-14T20:19:14.433Z,19.77
2018-09-14T20:21:42.154Z,20.52
2018-09-14T20:24:09.863Z,21.23
2018-09-14T20:26:37.853Z,21.03
2018-09-14T20:29:05.599Z,19.47
2018-09-14T20:31:33.406Z,21.87
2018-09-14T20:34:01.069Z,21.50
2018-09-14T20:36:29.553Z,20.77
2018-09-14T20:38:57.339Z,20.45
2018-09-14T20:41:25.038Z,20.90
2018-09-14T20:43:53.005Z,19.77
2018-09-14T20:46:20.769Z,22.67
2018-09-14T20:48:48.597Z,20.67
2018-09-14T20:51:16.353Z,22.13
2018-09-14T20:53:43.993Z,25.00
2018-09-14T20:56:11.645Z,23.70
2018-09-14T20:58:39.349Z,29.90
2018-09-14T21:01:06.977Z,27.52
2018-09-14T21:03:34.664Z,23.33
2018-09-14T21:06:02.437Z,21.73
2018-09-14T21:08:30.118Z,24.20
2018-09-14T21:10:57.777Z,21.45
2018-09-14T21:13:25.590Z,25.60
2018-09-14T21:15:53.222Z,21.90
2018-09-14T21:18:20.822Z,22.87
2018-09-14T21:20:48.498Z,21.27
2018-09-14T21:23:16.154Z,22.57
2018-09-14T21:25:43.818Z,22.27
2018-09-14T21:28:11.426Z,21.68
2018-09-14T21:30:39.582Z,22.67
2018-09-14T21:33:07.211Z,21.73
2018-09-14T21:35:34.890Z,23.00
2018-09-14T21:38:02.508Z,20.00
2018-09-14T21:40:30.240Z,23.30
2018-09-14T21:43:04.580Z,25.80
2018-09-14T21:45:32.160Z,22.30
2018-09-14T21:47:59.772Z,21.57
2018-09-14T21:50:27.434Z,21.87
2018-09-14T21:52:55.057Z,21.70
2018-09-14T21:55:22.682Z,22.37
2018-09-14T21:57:50.338Z,38.05
2018-09-14T22:00:23.746Z,24.82
2018-09-14T22:02:51.373Z,22.40
2018-09-14T22:05:19.067Z,27.07
2018-09-14T22:07:46.717Z,24.23
2018-09-14T22:10:14.371Z,23.87
2018-09-14T22:12:41.995Z,21.50
2018-09-14T22:15:09.655Z,21.10
2018-09-14T22:17:38.074Z,19.15
2018-09-14T22:20:06.268Z,20.83
2018-09-14T22:22:33.949Z,21.97
2018-09-14T22:25:01.554Z,23.00
2018-09-14T22:27:29.172Z,20.40
2018-09-14T22:29:57.865Z,20.75
2018-09-14T22:32:25.575Z,20.65
2018-09-14T22:34:53.274Z,19.70
2018-09-14T22:37:20.919Z,18.23
2018-09-14T22:39:48.613Z,18.30
2018-09-14T22:42:16.279Z,16.50
2018-09-14T22:44:44.028Z,17.50
2018-09-14T22:47:11.712Z,18.73
2018-09-14T22:49:39.937Z,17.27
2018-09-14T22:52:07.799Z,17.67
2018-09-14T22:54:35.421Z,17.02
2018-09-14T22:57:03.064Z,17.40
2018-09-14T22:59:30.624Z,18.30
2018-09-14T23:01:58.198Z,17.10
2018-09-14T23:04:25.836Z,15.83
2018-09-14T23:06:53.458Z,16.87
2018-09-14T23:09:21.549Z,18.45
2018-09-14T23:11:49.085Z,15.30
2018-09-14T23:14:16.756Z,15.00
2018-09-14T23:16:44.385Z,17.33
2018-09-14T23:19:11.993Z,14.93
2018-09-14T23:21:39.789Z,15.00
2018-09-14T23:24:07.527Z,14.93
2018-09-14T23:26:35.166Z,15.40
2018-09-14T23:29:02.875Z,14.00
2018-09-14T23:31:30.519Z,13.80
2018-09-14T23:33:58.275Z,14.20
2018-09-14T23:36:26.670Z,12.93
2018-09-14T23:38:54.340Z,13.77
2018-09-14T23:41:21.995Z,14.20
2018-09-14T23:43:50.274Z,13.40
2018-09-14T23:46:17.936Z,12.97
2018-09-14T23:48:46.590Z,13.00
2018-09-14T23:51:14.216Z,12.80
2018-09-14T23:53:41.866Z,12.75
2018-09-14T23:56:09.568Z,13.65
2018-09-14T23:58:37.414Z,13.80
